createdAt,value
2018-04-29T00:01:15.669Z,12.10
2018-04-29T00:03:41.676Z,12.10
2018-04-29T00:06:07.874Z,12.20
2018-04-29T00:08:34.062Z,12.20
2018-04-29T00:11:00.061Z,12.20
2018-04-29T00:13:26.053Z,12.20
2018-04-29T00:15:52.052Z,12.10
2018-04-29T00:18:18.045Z,12.10
2018-04-29T00:20:44.022Z,12.10
2018-04-29T00:23:10.802Z,11.90
2018-04-29T00:25:36.790Z,11.90
2018-04-29T00:28:03.520Z,11.90
2018-04-29T00:30:30.228Z,11.90
2018-04-29T00:32:56.250Z,11.90
2018-04-29T00:35:22.208Z,12.00
2018-04-29T00:37:49.013Z,12.00
2018-04-29T00:40:15.011Z,11.90
2018-04-29T00:42:40.997Z,12.00
2018-04-29T00:45:06.985Z,11.80
2018-04-29T00:47:33.006Z,11.80
2018-04-29T00:49:59.002Z,11.90
2018-04-29T00:52:24.998Z,11.90
2018-04-29T00:54:51.722Z,12.10
2018-04-29T00:57:18.673Z,12.00
2018-04-29T00:59:45.398Z,12.00
2018-04-29T01:02:11.400Z,12.00
2018-04-29T01:04:37.416Z,11.90
2018-04-29T01:07:03.381Z,11.90
2018-04-29T01:09:30.125Z,11.90
2018-04-29T01:11:56.078Z,11.90
2018-04-29T01:14:22.090Z,12.00
2018-04-29T01:16:48.793Z,11.90
2018-04-29T01:19:14.837Z,11.90
2018-04-29T01:21:41.580Z,11.90
2018-04-29T01:24:08.326Z,11.80
2018-04-29T01:26:34.307Z,11.80
2018-04-29T01:29:00.300Z,11.80
2018-04-29T01:31:26.265Z,11.70
2018-04-29T01:33:52.265Z,11.80
2018-04-29T01:36:18.253Z,11.70
2018-04-29T01:38:44.245Z,11.70
2018-04-29T01:41:10.951Z,11.70
2018-04-29T01:43:36.953Z,11.80
2018-04-29T01:46:02.934Z,11.60
2018-04-29T01:48:29.656Z,11.50
2018-04-29T01:50:55.627Z,11.50
2018-04-29T01:53:21.625Z,11.50
2018-04-29T01:55:48.357Z,11.50
2018-04-29T01:58:15.165Z,11.40
2018-04-29T02:00:41.351Z,11.40
2018-04-29T02:03:07.381Z,11.40
2018-04-29T02:05:33.362Z,11.40
2018-04-29T02:08:00.114Z,11.30
2018-04-29T02:10:26.819Z,11.30
2018-04-29T02:12:52.801Z,11.30
2018-04-29T02:15:18.780Z,11.20
2018-04-29T02:17:44.753Z,11.20
2018-04-29T02:20:10.761Z,11.20
2018-04-29T02:22:37.483Z,11.20
2018-04-29T02:25:04.237Z,11.10
2018-04-29T02:27:30.961Z,11.10
2018-04-29T02:29:57.688Z,11.10
2018-04-29T02:32:23.657Z,11.10
2018-04-29T02:34:49.653Z,11.10
2018-04-29T02:37:15.603Z,11.00
2018-04-29T02:39:41.615Z,10.90
2018-04-29T02:42:07.602Z,10.90
2018-04-29T02:44:40.389Z,10.80
2018-04-29T02:47:06.358Z,10.80
2018-04-29T02:49:32.349Z,10.90
2018-04-29T02:51:59.073Z,10.80
2018-04-29T02:54:25.077Z,10.80
2018-04-29T02:56:51.841Z,10.70
2018-04-29T02:59:17.850Z,10.70
2018-04-29T03:01:43.907Z,10.70
2018-04-29T03:04:09.930Z,10.70
2018-04-29T03:06:36.669Z,10.70
2018-04-29T03:09:03.425Z,10.70
2018-04-29T03:11:29.408Z,10.60
2018-04-29T03:13:55.399Z,10.60
2018-04-29T03:16:21.373Z,10.60
2018-04-29T03:18:48.097Z,10.50
2018-04-29T03:21:14.854Z,10.50
2018-04-29T03:23:40.861Z,10.50
2018-04-29T03:26:06.856Z,10.40
2018-04-29T03:28:32.829Z,10.40
2018-04-29T03:30:59.576Z,10.40
2018-04-29T03:33:25.573Z,10.40
2018-04-29T03:35:51.594Z,10.40
2018-04-29T03:38:17.565Z,10.40
2018-04-29T03:40:43.597Z,10.50
2018-04-29T03:43:09.569Z,10.50
2018-04-29T03:45:36.324Z,10.60
2018-04-29T03:48:02.317Z,10.50
2018-04-29T03:50:28.324Z,10.60
2018-04-29T03:52:54.272Z,10.60
2018-04-29T03:55:20.260Z,10.60
2018-04-29T03:57:52.336Z,10.70
2018-04-29T04:00:24.427Z,10.70
2018-04-29T04:02:56.505Z,10.70
2018-04-29T04:05:22.637Z,10.70
2018-04-29T04:07:48.626Z,10.80
2018-04-29T04:10:14.629Z,10.80
2018-04-29T04:12:40.608Z,10.80
2018-04-29T04:15:07.341Z,10.80
2018-04-29T04:17:34.058Z,10.80
2018-04-29T04:20:00.061Z,10.80
2018-04-29T04:22:26.046Z,10.90
2018-04-29T04:24:52.058Z,11.00
2018-04-29T04:27:18.037Z,11.00
2018-04-29T04:29:44.170Z,11.00
2018-04-29T04:32:12.869Z,11.00
2018-04-29T04:34:40.766Z,11.00
2018-04-29T04:37:06.766Z,11.00
2018-04-29T04:39:32.766Z,11.10
2018-04-29T04:41:58.766Z,11.10
2018-04-29T04:44:25.121Z,11.00
2018-04-29T04:46:51.269Z,11.20
2018-04-29T04:49:17.266Z,11.20
2018-04-29T04:51:43.266Z,11.30
2018-04-29T04:54:09.260Z,11.40
2018-04-29T04:56:36.005Z,11.30
2018-04-29T04:59:01.992Z,11.50
2018-04-29T05:01:28.092Z,11.30
2018-04-29T05:03:54.114Z,11.30
2018-04-29T05:06:20.097Z,11.40
2018-04-29T05:08:46.797Z,11.30
2018-04-29T05:11:12.769Z,11.30
2018-04-29T05:13:53.660Z,11.30
2018-04-29T05:16:22.427Z,11.30
2018-04-29T05:18:49.193Z,11.50
2018-04-29T05:21:15.184Z,11.50
2018-04-29T05:23:41.208Z,11.50
2018-04-29T05:26:08.063Z,11.60
2018-04-29T05:28:34.193Z,11.60
2018-04-29T05:31:00.221Z,11.50
2018-04-29T05:33:26.194Z,11.50
2018-04-29T05:35:55.794Z,11.50
2018-04-29T05:38:21.770Z,11.50
2018-04-29T05:40:47.774Z,11.30
2018-04-29T05:43:14.488Z,11.70
2018-04-29T05:45:40.482Z,11.60
2018-04-29T05:48:06.561Z,11.90
2018-04-29T05:50:32.719Z,12.00
2018-04-29T05:52:58.690Z,12.00
2018-04-29T05:55:25.513Z,12.00
2018-04-29T05:57:51.513Z,12.00
2018-04-29T06:00:17.559Z,12.10
2018-04-29T06:02:43.489Z,12.10
2018-04-29T06:05:09.485Z,12.20
2018-04-29T06:07:35.477Z,12.20
2018-04-29T06:10:01.461Z,12.30
2018-04-29T06:12:27.462Z,12.40
2018-04-29T06:14:53.488Z,12.40
2018-04-29T06:17:19.481Z,12.60
2018-04-29T06:19:45.488Z,12.60
2018-04-29T06:22:12.219Z,12.60
2018-04-29T06:24:39.005Z,12.60
2018-04-29T06:27:05.008Z,12.60
2018-04-29T06:29:31.770Z,12.70
2018-04-29T06:31:57.816Z,12.70
2018-04-29T06:34:23.745Z,12.70
2018-04-29T06:36:50.321Z,12.60
2018-04-29T06:39:16.320Z,12.60
2018-04-29T06:41:42.341Z,12.50
2018-04-29T06:44:08.305Z,12.50
2018-04-29T06:46:34.312Z,12.40
2018-04-29T06:49:00.279Z,12.30
2018-04-29T06:51:26.289Z,12.30
2018-04-29T06:53:52.282Z,12.40
2018-04-29T06:56:18.293Z,12.40
2018-04-29T06:58:45.018Z,12.20
2018-04-29T07:01:11.014Z,12.20
2018-04-29T07:03:37.042Z,12.10
2018-04-29T07:06:03.034Z,12.10
2018-04-29T07:08:29.030Z,12.20
2018-04-29T07:10:55.769Z,12.40
2018-04-29T07:13:22.541Z,12.40
2018-04-29T07:15:48.537Z,12.40
2018-04-29T07:18:15.244Z,12.10
2018-04-29T07:20:41.211Z,12.10
2018-04-29T07:23:07.227Z,12.30
2018-04-29T07:25:33.962Z,12.60
2018-04-29T07:28:00.701Z,12.60
2018-04-29T07:30:27.421Z,12.60
2018-04-29T07:32:53.404Z,12.60
2018-04-29T07:35:19.373Z,12.60
2018-04-29T07:37:45.367Z,12.60
2018-04-29T07:40:11.423Z,12.60
2018-04-29T07:42:37.357Z,12.70
2018-04-29T07:45:03.321Z,12.70
2018-04-29T07:47:29.301Z,12.90
2018-04-29T07:49:55.270Z,12.70
2018-04-29T07:52:21.423Z,12.60
2018-04-29T07:54:47.267Z,12.70
2018-04-29T07:57:14.010Z,13.10
2018-04-29T07:59:39.978Z,13.00
2018-04-29T08:02:05.965Z,13.10
2018-04-29T08:04:32.681Z,12.80
2018-04-29T08:06:58.817Z,12.80
2018-04-29T08:09:25.057Z,12.80
2018-04-29T08:11:51.797Z,12.70
2018-04-29T08:14:18.513Z,12.70
2018-04-29T08:16:44.842Z,12.70
2018-04-29T08:19:11.169Z,12.90
2018-04-29T08:21:38.525Z,13.20
2018-04-29T08:24:05.477Z,13.20
2018-04-29T08:26:31.462Z,13.20
2018-04-29T08:28:57.462Z,13.50
2018-04-29T08:31:23.463Z,13.60
2018-04-29T08:33:49.493Z,13.80
2018-04-29T08:36:16.241Z,13.60
2018-04-29T08:38:42.973Z,13.60
2018-04-29T08:41:09.693Z,13.50
2018-04-29T08:43:35.685Z,13.50
2018-04-29T08:46:01.657Z,13.60
2018-04-29T08:48:30.735Z,13.60
2018-04-29T08:50:57.657Z,13.70
2018-04-29T08:53:23.651Z,13.60
2018-04-29T08:55:49.718Z,13.70
2018-04-29T08:58:15.732Z,13.90
2018-04-29T09:00:41.709Z,13.90
2018-04-29T09:03:07.699Z,13.70
2018-04-29T09:05:33.680Z,13.80
2018-04-29T09:07:59.725Z,13.80
2018-04-29T09:10:25.687Z,13.80
2018-04-29T09:12:52.405Z,14.00
2018-04-29T09:15:18.361Z,13.90
2018-04-29T09:17:44.354Z,14.10
2018-04-29T09:20:10.392Z,13.90
2018-04-29T09:22:37.116Z,14.00
2018-04-29T09:25:03.089Z,14.00
2018-04-29T09:27:29.121Z,13.90
2018-04-29T09:29:55.105Z,13.90
2018-04-29T09:32:21.831Z,14.40
2018-04-29T09:34:47.833Z,14.40
2018-04-29T09:37:13.941Z,14.50
2018-04-29T09:39:40.644Z,14.20
2018-04-29T09:42:06.629Z,14.20
2018-04-29T09:44:32.600Z,14.40
2018-04-29T09:46:58.573Z,14.40
2018-04-29T09:49:24.558Z,14.50
2018-04-29T09:51:50.702Z,14.40
2018-04-29T09:54:16.685Z,14.40
2018-04-29T09:56:43.424Z,14.60
2018-04-29T09:59:09.430Z,14.50
2018-04-29T10:01:36.161Z,14.60
2018-04-29T10:04:02.188Z,14.60
2018-04-29T10:06:28.156Z,15.00
2018-04-29T10:08:54.150Z,15.10
2018-04-29T10:11:20.889Z,15.30
2018-04-29T10:13:47.632Z,15.30
2018-04-29T10:16:13.613Z,15.30
2018-04-29T10:18:39.605Z,15.00
2018-04-29T10:23:55.846Z,14.80
2018-04-29T10:26:21.781Z,14.90
2018-04-29T10:28:47.734Z,14.70
2018-04-29T10:31:13.708Z,14.90
2018-04-29T10:33:39.708Z,15.10
2018-04-29T10:36:05.672Z,15.30
2018-04-29T10:38:31.664Z,15.30
2018-04-29T10:40:57.637Z,15.50
2018-04-29T10:43:24.388Z,15.50
2018-04-29T10:45:50.349Z,15.50
2018-04-29T10:48:16.340Z,15.70
2018-04-29T10:50:42.321Z,15.60
2018-04-29T10:53:08.609Z,15.80
2018-04-29T10:55:34.642Z,15.70
2018-04-29T10:58:00.649Z,15.60
2018-04-29T11:00:26.637Z,15.50
2018-04-29T11:02:53.380Z,16.10
2018-04-29T11:05:19.376Z,16.00
2018-04-29T11:07:45.373Z,16.20
2018-04-29T11:10:11.382Z,16.20
2018-04-29T11:12:37.396Z,16.20
2018-04-29T11:15:04.144Z,16.50
2018-04-29T11:17:30.889Z,16.20
2018-04-29T11:19:56.897Z,16.20
2018-04-29T11:22:23.691Z,16.10
2018-04-29T11:24:49.662Z,16.10
2018-04-29T11:27:16.394Z,16.90
2018-04-29T11:29:43.130Z,17.30
2018-04-29T11:32:09.194Z,17.20
2018-04-29T11:34:35.189Z,17.30
2018-04-29T11:37:01.913Z,17.20
2018-04-29T11:39:27.917Z,17.20
2018-04-29T11:41:53.900Z,17.80
2018-04-29T11:44:19.912Z,18.50
2018-04-29T11:46:45.924Z,18.50
2018-04-29T11:49:12.669Z,18.80
2018-04-29T11:51:38.633Z,18.80
2018-04-29T11:54:04.614Z,18.20
2018-04-29T11:56:30.596Z,18.50
2018-04-29T11:58:56.624Z,18.40
2018-04-29T12:01:22.628Z,18.20
2018-04-29T12:03:48.657Z,17.80
2018-04-29T12:06:14.640Z,17.70
2018-04-29T12:08:40.686Z,18.10
2018-04-29T12:11:06.700Z,18.30
2018-04-29T12:13:32.714Z,18.00
2018-04-29T12:15:59.427Z,17.90
2018-04-29T12:18:26.182Z,18.20
2018-04-29T12:20:52.891Z,18.10
2018-04-29T12:23:18.848Z,18.10
2018-04-29T12:25:44.865Z,17.90
2018-04-29T12:28:11.608Z,17.30
2018-04-29T12:30:38.349Z,17.00
2018-04-29T12:33:04.345Z,16.90
2018-04-29T12:35:30.361Z,16.50
2018-04-29T12:37:56.332Z,16.60
2018-04-29T12:40:22.317Z,16.40
2018-04-29T12:42:48.321Z,16.40
2018-04-29T12:45:15.122Z,16.40
2018-04-29T12:47:41.416Z,16.50
2018-04-29T12:50:08.149Z,16.30
2018-04-29T12:52:35.337Z,16.00
2018-04-29T12:55:01.367Z,16.00
2018-04-29T12:57:27.382Z,15.80
2018-04-29T12:59:54.117Z,15.70
2018-04-29T13:02:20.074Z,15.70
2018-04-29T13:04:46.061Z,15.60
2018-04-29T13:07:12.540Z,15.40
2018-04-29T13:09:38.546Z,15.40
2018-04-29T13:12:05.256Z,15.40
2018-04-29T13:14:32.001Z,15.30
2018-04-29T13:16:57.961Z,15.30
2018-04-29T13:19:23.949Z,14.90
2018-04-29T13:21:49.980Z,14.60
2018-04-29T13:24:15.977Z,14.60
2018-04-29T13:26:42.696Z,14.60
2018-04-29T13:29:08.829Z,14.60
2018-04-29T13:31:34.817Z,14.20
2018-04-29T13:34:00.817Z,14.20
2018-04-29T13:36:26.813Z,14.10
2018-04-29T13:38:52.790Z,14.10
2018-04-29T13:41:18.935Z,14.00
2018-04-29T13:43:44.980Z,14.00
2018-04-29T13:46:11.724Z,14.00
2018-04-29T13:48:37.696Z,14.00
2018-04-29T13:51:03.689Z,13.80
2018-04-29T13:53:30.413Z,13.50
2018-04-29T13:55:56.417Z,13.50
2018-04-29T13:58:22.409Z,13.50
2018-04-29T14:00:48.453Z,13.70
2018-04-29T14:03:14.433Z,13.70
2018-04-29T14:05:40.581Z,13.70
2018-04-29T14:08:07.378Z,13.50
2018-04-29T14:10:33.445Z,13.50
2018-04-29T14:12:59.431Z,13.50
2018-04-29T14:15:25.384Z,13.50
2018-04-29T14:17:52.099Z,13.40
2018-04-29T14:20:18.849Z,13.40
2018-04-29T14:22:44.821Z,13.40
2018-04-29T14:25:10.829Z,13.60
2018-04-29T14:27:36.793Z,13.10
2018-04-29T14:30:02.797Z,13.10
2018-04-29T14:32:28.776Z,13.10
2018-04-29T14:34:55.500Z,13.00
2018-04-29T14:37:21.505Z,13.00
2018-04-29T14:39:47.505Z,13.10
2018-04-29T14:42:13.486Z,13.10
2018-04-29T14:44:39.508Z,13.20
2018-04-29T14:47:05.489Z,13.10
2018-04-29T14:49:31.556Z,13.00
2018-04-29T14:51:57.473Z,13.00
2018-04-29T14:54:24.257Z,12.70
2018-04-29T14:56:50.261Z,12.70
2018-04-29T14:59:16.233Z,12.80
2018-04-29T15:01:42.237Z,12.80
2018-04-29T15:04:08.246Z,12.80
2018-04-29T15:06:34.249Z,12.80
2018-04-29T15:09:00.249Z,12.60
2018-04-29T15:11:26.245Z,12.60
2018-04-29T15:13:52.225Z,12.60
2018-04-29T15:16:18.221Z,12.60
2018-04-29T15:18:50.305Z,12.60
2018-04-29T15:21:16.365Z,12.60
2018-04-29T15:23:43.062Z,12.60
2018-04-29T15:26:09.073Z,12.60
2018-04-29T15:28:35.790Z,12.60
2018-04-29T15:31:01.790Z,12.60
2018-04-29T15:33:27.790Z,12.60
2018-04-29T15:35:53.777Z,12.50
2018-04-29T15:38:20.502Z,12.40
2018-04-29T15:40:47.283Z,12.40
2018-04-29T15:43:13.253Z,12.50
2018-04-29T15:45:39.246Z,12.50
2018-04-29T15:48:05.212Z,12.50
2018-04-29T15:50:31.281Z,12.50
2018-04-29T15:52:57.256Z,12.50
2018-04-29T15:55:24.019Z,12.50
2018-04-29T15:57:50.067Z,12.50
2018-04-29T16:00:16.060Z,12.60
2018-04-29T16:02:42.773Z,12.50
2018-04-29T16:05:08.861Z,12.50
2018-04-29T16:07:34.852Z,12.50
2018-04-29T16:10:01.569Z,12.60
2018-04-29T16:12:27.596Z,12.50
2018-04-29T16:14:54.357Z,12.90
2018-04-29T16:17:21.090Z,12.90
2018-04-29T16:19:47.072Z,12.90
2018-04-29T16:22:13.048Z,12.90
2018-04-29T16:24:39.011Z,12.90
2018-04-29T16:27:05.607Z,12.70
2018-04-29T16:29:32.294Z,12.70
2018-04-29T16:31:58.238Z,12.70
2018-04-29T16:34:24.172Z,12.80
2018-04-29T16:36:50.142Z,12.90
2018-04-29T16:39:16.109Z,12.90
2018-04-29T16:41:42.117Z,12.80
2018-04-29T16:44:08.122Z,12.70
2018-04-29T16:46:34.139Z,12.70
2018-04-29T16:49:00.101Z,12.60
2018-04-29T16:51:26.191Z,12.70
2018-04-29T16:53:52.281Z,12.70
2018-04-29T16:56:18.349Z,12.80
2018-04-29T16:58:44.366Z,12.70
2018-04-29T17:01:10.358Z,12.70
2018-04-29T17:03:37.101Z,12.70
2018-04-29T17:06:03.099Z,12.80
2018-04-29T17:08:29.095Z,12.80
2018-04-29T17:10:55.098Z,12.80
2018-04-29T17:13:21.097Z,12.80
2018-04-29T17:15:47.077Z,12.90
2018-04-29T17:18:13.065Z,12.80
2018-04-29T17:20:39.049Z,12.90
2018-04-29T17:23:05.797Z,12.90
2018-04-29T17:25:31.811Z,13.00
2018-04-29T17:27:58.906Z,12.90
2018-04-29T17:30:25.082Z,12.80
2018-04-29T17:32:51.884Z,12.90
2018-04-29T17:35:17.981Z,12.90
2018-04-29T17:37:43.981Z,12.90
2018-04-29T17:40:09.971Z,13.00
2018-04-29T17:42:35.970Z,12.90
2018-04-29T17:45:01.970Z,12.80
2018-04-29T17:47:28.235Z,12.80
2018-04-29T17:49:54.217Z,12.90
2018-04-29T17:52:20.222Z,13.00
2018-04-29T17:54:46.951Z,12.80
2018-04-29T17:57:12.957Z,12.80
2018-04-29T17:59:38.938Z,12.70
2018-04-29T18:02:04.933Z,12.70
2018-04-29T18:04:31.656Z,12.60
2018-04-29T18:06:57.645Z,12.60
2018-04-29T18:09:23.609Z,12.60
2018-04-29T18:11:49.610Z,12.70
2018-04-29T18:14:15.625Z,12.70
2018-04-29T18:16:41.610Z,12.70
2018-04-29T18:19:08.421Z,12.70
2018-04-29T18:21:34.501Z,12.70
2018-04-29T18:24:00.501Z,12.60
2018-04-29T18:26:26.477Z,12.40
2018-04-29T18:28:53.232Z,12.20
2018-04-29T18:31:19.184Z,12.10
2018-04-29T18:33:45.912Z,12.10
2018-04-29T18:36:12.624Z,12.10
2018-04-29T18:38:38.613Z,12.10
2018-04-29T18:41:04.593Z,12.10
2018-04-29T18:43:31.354Z,11.90
2018-04-29T18:45:57.345Z,11.90
2018-04-29T18:48:23.351Z,12.00
2018-04-29T18:50:49.495Z,12.00
2018-04-29T18:53:15.356Z,11.90
2018-04-29T18:55:41.370Z,11.80
2018-04-29T18:58:07.361Z,11.80
2018-04-29T19:00:34.104Z,11.90
2018-04-29T19:03:00.180Z,11.90
2018-04-29T19:05:32.229Z,11.80
2018-04-29T19:07:58.416Z,11.70
2018-04-29T19:10:24.417Z,11.80
2018-04-29T19:12:50.483Z,11.80
2018-04-29T19:15:16.489Z,11.80
2018-04-29T19:17:42.493Z,11.70
2018-04-29T19:20:08.517Z,11.60
2018-04-29T19:22:34.593Z,11.70
2018-04-29T19:25:01.530Z,11.50
2018-04-29T19:27:29.141Z,11.50
2018-04-29T19:29:55.802Z,11.50
2018-04-29T19:32:22.564Z,11.40
2018-04-29T19:34:48.597Z,11.40
2018-04-29T19:37:14.597Z,11.50
2018-04-29T19:39:40.694Z,11.50
2018-04-29T19:42:06.717Z,11.40
2018-04-29T19:44:32.820Z,11.40
2018-04-29T19:46:58.820Z,11.40
2018-04-29T19:49:25.571Z,11.50
2018-04-29T19:51:51.541Z,11.50
2018-04-29T19:54:17.538Z,11.50
2018-04-29T19:56:43.537Z,11.50
2018-04-29T19:59:10.264Z,11.50
2018-04-29T20:01:36.968Z,11.50
2018-04-29T20:04:02.960Z,11.50
2018-04-29T20:06:28.992Z,11.50
2018-04-29T20:08:54.977Z,11.40
2018-04-29T20:11:21.721Z,11.30
2018-04-29T20:13:48.462Z,11.30
2018-04-29T20:16:14.478Z,11.30
2018-04-29T20:18:41.200Z,11.40
2018-04-29T20:21:07.173Z,11.40
2018-04-29T20:23:33.165Z,11.50
2018-04-29T20:25:59.873Z,11.30
2018-04-29T20:28:25.864Z,11.30
2018-04-29T20:30:51.840Z,11.30
2018-04-29T20:33:18.590Z,11.30
2018-04-29T20:35:45.317Z,11.20
2018-04-29T20:38:12.072Z,11.50
2018-04-29T20:40:38.845Z,11.40
2018-04-29T20:43:04.861Z,11.40
2018-04-29T20:45:31.577Z,11.50
2018-04-29T20:47:57.589Z,11.50
2018-04-29T20:50:23.761Z,11.50
2018-04-29T20:52:50.248Z,11.40
2018-04-29T20:55:16.387Z,11.40
2018-04-29T20:57:42.414Z,11.40
2018-04-29T21:00:09.240Z,11.40
2018-04-29T21:02:35.221Z,11.30
2018-04-29T21:05:01.205Z,11.40
2018-04-29T21:07:27.943Z,11.40
2018-04-29T21:09:53.993Z,11.40
2018-04-29T21:12:19.997Z,11.40
2018-04-29T21:14:46.775Z,11.30
2018-04-29T21:17:12.779Z,11.30
2018-04-29T21:19:38.808Z,11.40
2018-04-29T21:22:04.817Z,11.40
2018-04-29T21:24:31.547Z,11.50
2018-04-29T21:26:57.511Z,11.40
2018-04-29T21:29:23.496Z,11.40
2018-04-29T21:31:50.297Z,11.50
2018-04-29T21:34:16.573Z,11.20
2018-04-29T21:36:42.729Z,11.40
2018-04-29T21:39:09.080Z,11.40
2018-04-29T21:41:35.170Z,11.40
2018-04-29T21:44:01.166Z,11.40
2018-04-29T21:46:27.858Z,11.30
2018-04-29T21:48:53.869Z,11.30
2018-04-29T21:51:19.842Z,11.30
2018-04-29T21:53:45.836Z,11.30
2018-04-29T21:56:11.836Z,11.30
2018-04-29T21:58:37.825Z,11.60
2018-04-29T22:01:03.796Z,11.30
2018-04-29T22:03:29.784Z,11.40
2018-04-29T22:05:56.490Z,11.40
2018-04-29T22:08:22.465Z,11.30
2018-04-29T22:10:48.432Z,11.30
2018-04-29T22:13:14.400Z,11.20
2018-04-29T22:15:40.384Z,11.20
2018-04-29T22:18:06.361Z,11.20
2018-04-29T22:20:32.365Z,11.20
2018-04-29T22:22:58.337Z,11.20
2018-04-29T22:25:24.333Z,11.20
2018-04-29T22:27:50.316Z,11.20
2018-04-29T22:30:17.059Z,11.30
2018-04-29T22:32:43.840Z,11.20
2018-04-29T22:35:10.542Z,11.30
2018-04-29T22:37:37.282Z,11.20
2018-04-29T22:40:04.009Z,11.30
2018-04-29T22:42:29.989Z,11.20
2018-04-29T22:44:55.973Z,11.20
2018-04-29T22:47:21.966Z,11.00
2018-04-29T22:49:48.054Z,11.10
2018-04-29T22:52:14.047Z,11.10
2018-04-29T22:54:40.046Z,11.20
2018-04-29T22:57:06.041Z,11.20
2018-04-29T22:59:32.033Z,11.20
2018-04-29T23:01:58.029Z,11.20
2018-04-29T23:04:24.752Z,11.20
2018-04-29T23:06:50.733Z,11.20
2018-04-29T23:09:16.717Z,11.20
2018-04-29T23:11:43.441Z,11.20
2018-04-29T23:14:09.414Z,11.20
2018-04-29T23:16:35.421Z,11.20
2018-04-29T23:19:01.394Z,11.20
2018-04-29T23:21:27.373Z,11.10
2018-04-29T23:23:53.353Z,11.20
2018-04-29T23:26:19.342Z,11.20
2018-04-29T23:28:45.286Z,11.10
2018-04-29T23:31:11.247Z,11.20
2018-04-29T23:33:37.957Z,11.20
2018-04-29T23:36:04.116Z,11.20
2018-04-29T23:38:30.117Z,11.20
2018-04-29T23:40:56.117Z,11.20
2018-04-29T23:43:22.133Z,11.10
2018-04-29T23:45:48.146Z,11.20
2018-04-29T23:48:14.125Z,11.20
2018-04-29T23:50:40.889Z,11.20
2018-04-29T23:53:06.886Z,11.20
2018-04-29T23:55:33.653Z,11.00
2018-04-29T23:58:00.401Z,11.00
